sensor_id;sensor_type;location;lat;lon;timestamp;P1;durP1;ratioP1;P2;durP2;ratioP2
63874;SDS011;51595;24.180;-110.296;2022-07-23T00:01:25;4.22;;;1.10;;
63874;SDS011;51595;24.180;-110.296;2022-07-23T00:03:52;2.83;;;1.30;;
63874;SDS011;51595;24.180;-110.296;2022-07-23T00:06:20;5.28;;;1.13;;
63874;SDS011;51595;24.180;-110.296;2022-07-23T00:08:46;3.30;;;1.05;;
63874;SDS011;51595;24.180;-110.296;2022-07-23T00:11:13;2.67;;;1.00;;
63874;SDS011;51595;24.180;-110.296;2022-07-23T00:13:40;2.63;;;1.08;;
63874;SDS011;51595;24.180;-110.296;2022-07-23T00:16:06;5.78;;;1.52;;
63874;SDS011;51595;24.180;-110.296;2022-07-23T00:18:33;1.67;;;0.90;;
63874;SDS011;51595;24.180;-110.296;2022-07-23T00:20:59;4.38;;;1.35;;
63874;SDS011;51595;24.180;-110.296;2022-07-23T00:23:26;4.80;;;1.25;;
63874;SDS011;51595;24.180;-110.296;2022-07-23T00:25:54;1.70;;;0.80;;
63874;SDS011;51595;24.180;-110.296;2022-07-23T00:28:20;7.90;;;1.17;;
63874;SDS011;51595;24.180;-110.296;2022-07-23T00:30:47;3.22;;;1.13;;
63874;SDS011;51595;24.180;-110.296;2022-07-23T00:33:13;1.80;;;1.00;;
63874;SDS011;51595;24.180;-110.296;2022-07-23T00:35:40;2.50;;;0.90;;
63874;SDS011;51595;24.180;-110.296;2022-07-23T00:38:08;1.55;;;0.80;;
63874;SDS011;51595;24.180;-110.296;2022-07-23T00:40:36;3.95;;;1.30;;
63874;SDS011;51595;24.180;-110.296;2022-07-23T00:43:03;14.48;;;3.53;;
63874;SDS011;51595;24.180;-110.296;2022-07-23T00:45:30;10.93;;;3.53;;
63874;SDS011;51595;24.180;-110.296;2022-07-23T00:47:57;28.33;;;3.97;;
63874;SDS011;51595;24.180;-110.296;2022-07-23T00:50:24;23.83;;;4.05;;
63874;SDS011;51595;24.180;-110.296;2022-07-23T00:52:50;12.93;;;1.98;;
63874;SDS011;51595;24.180;-110.296;2022-07-23T00:55:18;12.57;;;2.90;;
63874;SDS011;51595;24.180;-110.296;2022-07-23T00:57:44;7.63;;;1.65;;
63874;SDS011;51595;24.180;-110.296;2022-07-23T01:00:13;13.18;;;3.47;;
63874;SDS011;51595;24.180;-110.296;2022-07-23T01:02:40;13.73;;;4.32;;
63874;SDS011;51595;24.180;-110.296;2022-07-23T01:05:07;12.80;;;3.67;;
63874;SDS011;51595;24.180;-110.296;2022-07-23T01:07:34;13.57;;;3.63;;
63874;SDS011;51595;24.180;-110.296;2022-07-23T01:10:02;14.65;;;3.30;;
63874;SDS011;51595;24.180;-110.296;2022-07-23T01:12:29;23.00;;;4.82;;
63874;SDS011;51595;24.180;-110.296;2022-07-23T01:14:57;17.88;;;4.60;;
63874;SDS011;51595;24.180;-110.296;2022-07-23T01:17:24;16.35;;;3.95;;
63874;SDS011;51595;24.180;-110.296;2022-07-23T01:19:51;16.83;;;3.83;;
63874;SDS011;51595;24.180;-110.296;2022-07-23T01:22:18;13.18;;;4.55;;
63874;SDS011;51595;24.180;-110.296;2022-07-23T01:24:45;24.58;;;4.63;;
63874;SDS011;51595;24.180;-110.296;2022-07-23T01:27:12;20.20;;;5.00;;
63874;SDS011;51595;24.180;-110.296;2022-07-23T01:29:39;18.42;;;4.50;;
63874;SDS011;51595;24.180;-110.296;2022-07-23T01:32:06;18.50;;;5.03;;
63874;SDS011;51595;24.180;-110.296;2022-07-23T01:34:32;24.63;;;4.57;;
63874;SDS011;51595;24.180;-110.296;2022-07-23T01:36:59;20.73;;;4.25;;
63874;SDS011;51595;24.180;-110.296;2022-07-23T01:39:25;15.10;;;3.67;;
63874;SDS011;51595;24.180;-110.296;2022-07-23T01:41:52;15.70;;;4.03;;
63874;SDS011;51595;24.180;-110.296;2022-07-23T01:44:18;17.88;;;4.53;;
63874;SDS011;51595;24.180;-110.296;2022-07-23T01:46:45;14.70;;;4.20;;
63874;SDS011;51595;24.180;-110.296;2022-07-23T01:49:11;18.95;;;4.43;;
63874;SDS011;51595;24.180;-110.296;2022-07-23T01:51:38;17.30;;;4.78;;
63874;SDS011;51595;24.180;-110.296;2022-07-23T01:54:24;20.58;;;4.55;;
63874;SDS011;51595;24.180;-110.296;2022-07-23T01:57:00;23.42;;;4.95;;
63874;SDS011;51595;24.180;-110.296;2022-07-23T01:59:27;26.52;;;4.78;;
63874;SDS011;51595;24.180;-110.296;2022-07-23T02:01:53;20.75;;;4.25;;
63874;SDS011;51595;24.180;-110.296;2022-07-23T02:04:21;23.42;;;6.45;;
63874;SDS011;51595;24.180;-110.296;2022-07-23T02:06:48;23.98;;;5.28;;
63874;SDS011;51595;24.180;-110.296;2022-07-23T02:09:14;22.55;;;4.57;;
63874;SDS011;51595;24.180;-110.296;2022-07-23T02:11:41;17.90;;;4.55;;
63874;SDS011;51595;24.180;-110.296;2022-07-23T02:14:07;17.83;;;4.55;;
63874;SDS011;51595;24.180;-110.296;2022-07-23T02:16:34;17.58;;;5.05;;
63874;SDS011;51595;24.180;-110.296;2022-07-23T02:19:00;18.45;;;4.57;;
63874;SDS011;51595;24.180;-110.296;2022-07-23T02:21:27;17.73;;;4.78;;
63874;SDS011;51595;24.180;-110.296;2022-07-23T02:23:54;19.67;;;4.93;;
63874;SDS011;51595;24.180;-110.296;2022-07-23T02:26:20;19.17;;;4.72;;
63874;SDS011;51595;24.180;-110.296;2022-07-23T02:28:47;25.50;;;5.53;;
63874;SDS011;51595;24.180;-110.296;2022-07-23T02:31:13;20.77;;;5.50;;
63874;SDS011;51595;24.180;-110.296;2022-07-23T02:33:40;19.67;;;4.55;;
63874;SDS011;51595;24.180;-110.296;2022-07-23T02:36:07;22.35;;;4.90;;
63874;SDS011;51595;24.180;-110.296;2022-07-23T02:38:34;26.48;;;5.60;;
63874;SDS011;51595;24.180;-110.296;2022-07-23T02:41:00;21.25;;;5.25;;
63874;SDS011;51595;24.180;-110.296;2022-07-23T02:43:27;21.17;;;5.38;;
63874;SDS011;51595;24.180;-110.296;2022-07-23T02:45:53;21.10;;;4.85;;
63874;SDS011;51595;24.180;-110.296;2022-07-23T02:48:20;23.23;;;4.93;;
63874;SDS011;51595;24.180;-110.296;2022-07-23T02:50:46;23.52;;;5.18;;
63874;SDS011;51595;24.180;-110.296;2022-07-23T02:53:12;21.30;;;5.57;;
63874;SDS011;51595;24.180;-110.296;2022-07-23T02:55:39;30.50;;;4.78;;
63874;SDS011;51595;24.180;-110.296;2022-07-23T02:58:05;22.27;;;4.57;;
63874;SDS011;51595;24.180;-110.296;2022-07-23T03:00:32;25.83;;;5.30;;
63874;SDS011;51595;24.180;-110.296;2022-07-23T03:02:58;22.65;;;5.13;;
63874;SDS011;51595;24.180;-110.296;2022-07-23T03:05:25;18.75;;;4.30;;
63874;SDS011;51595;24.180;-110.296;2022-07-23T03:07:51;16.73;;;5.18;;
63874;SDS011;51595;24.180;-110.296;2022-07-23T03:10:18;20.55;;;4.95;;
63874;SDS011;51595;24.180;-110.296;2022-07-23T03:12:44;18.55;;;5.30;;
63874;SDS011;51595;24.180;-110.296;2022-07-23T03:15:10;19.00;;;5.15;;
63874;SDS011;51595;24.180;-110.296;2022-07-23T03:17:37;23.92;;;5.25;;
63874;SDS011;51595;24.180;-110.296;2022-07-23T03:20:03;22.48;;;5.35;;
63874;SDS011;51595;24.180;-110.296;2022-07-23T03:22:30;24.88;;;5.78;;
63874;SDS011;51595;24.180;-110.296;2022-07-23T03:24:57;26.67;;;5.00;;
63874;SDS011;51595;24.180;-110.296;2022-07-23T03:27:24;22.50;;;5.50;;
63874;SDS011;51595;24.180;-110.296;2022-07-23T03:29:53;27.52;;;5.57;;
63874;SDS011;51595;24.180;-110.296;2022-07-23T03:32:22;25.25;;;6.00;;
63874;SDS011;51595;24.180;-110.296;2022-07-23T03:34:49;20.60;;;4.72;;
63874;SDS011;51595;24.180;-110.296;2022-07-23T03:37:16;25.00;;;5.40;;
63874;SDS011;51595;24.180;-110.296;2022-07-23T03:39:43;26.17;;;5.32;;
63874;SDS011;51595;24.180;-110.296;2022-07-23T03:42:10;24.40;;;5.85;;
63874;SDS011;51595;24.180;-110.296;2022-07-23T03:44:36;21.20;;;4.93;;
63874;SDS011;51595;24.180;-110.296;2022-07-23T03:47:04;24.20;;;5.43;;
63874;SDS011;51595;24.180;-110.296;2022-07-23T03:49:31;26.45;;;5.13;;
63874;SDS011;51595;24.180;-110.296;2022-07-23T03:51:58;28.48;;;5.53;;
63874;SDS011;51595;24.180;-110.296;2022-07-23T03:54:25;22.88;;;4.88;;
63874;SDS011;51595;24.180;-110.296;2022-07-23T03:56:51;26.20;;;6.38;;
63874;SDS011;51595;24.180;-110.296;2022-07-23T03:59:18;21.48;;;5.40;;
63874;SDS011;51595;24.180;-110.296;2022-07-23T04:01:44;20.75;;;5.30;;
63874;SDS011;51595;24.180;-110.296;2022-07-23T04:04:11;23.20;;;5.13;;
63874;SDS011;51595;24.180;-110.296;2022-07-23T04:06:37;25.25;;;6.07;;
63874;SDS011;51595;24.180;-110.296;2022-07-23T04:09:04;26.60;;;5.35;;
63874;SDS011;51595;24.180;-110.296;2022-07-23T04:11:30;26.02;;;5.97;;
63874;SDS011;51595;24.180;-110.296;2022-07-23T04:13:57;28.42;;;6.10;;
63874;SDS011;51595;24.180;-110.296;2022-07-23T04:16:23;19.85;;;5.05;;
63874;SDS011;51595;24.180;-110.296;2022-07-23T04:18:50;22.23;;;5.43;;
63874;SDS011;51595;24.180;-110.296;2022-07-23T04:21:16;26.20;;;6.30;;
63874;SDS011;51595;24.180;-110.296;2022-07-23T04:23:42;29.30;;;5.55;;
63874;SDS011;51595;24.180;-110.296;2022-07-23T04:26:09;21.83;;;5.65;;
63874;SDS011;51595;24.180;-110.296;2022-07-23T04:28:36;26.77;;;5.78;;
63874;SDS011;51595;24.180;-110.296;2022-07-23T04:31:02;30.63;;;5.95;;
63874;SDS011;51595;24.180;-110.296;2022-07-23T04:33:29;26.27;;;5.93;;
63874;SDS011;51595;24.180;-110.296;2022-07-23T04:35:55;27.33;;;5.32;;
63874;SDS011;51595;24.180;-110.296;2022-07-23T04:38:22;28.33;;;5.85;;
63874;SDS011;51595;24.180;-110.296;2022-07-23T04:40:48;29.75;;;5.50;;
63874;SDS011;51595;24.180;-110.296;2022-07-23T04:43:15;25.90;;;6.22;;
63874;SDS011;51595;24.180;-110.296;2022-07-23T04:45:41;29.33;;;6.38;;
63874;SDS011;51595;24.180;-110.296;2022-07-23T04:48:07;29.17;;;6.18;;
63874;SDS011;51595;24.180;-110.296;2022-07-23T04:50:34;27.42;;;6.35;;
63874;SDS011;51595;24.180;-110.296;2022-07-23T04:53:00;21.25;;;6.07;;
63874;SDS011;51595;24.180;-110.296;2022-07-23T04:55:27;28.77;;;5.90;;
63874;SDS011;51595;24.180;-110.296;2022-07-23T04:57:54;20.30;;;5.55;;
63874;SDS011;51595;24.180;-110.296;2022-07-23T05:00:20;28.73;;;5.72;;
63874;SDS011;51595;24.180;-110.296;2022-07-23T05:02:47;28.75;;;5.05;;
63874;SDS011;51595;24.180;-110.296;2022-07-23T05:05:13;18.27;;;5.47;;
63874;SDS011;51595;24.180;-110.296;2022-07-23T05:07:40;30.20;;;5.47;;
63874;SDS011;51595;24.180;-110.296;2022-07-23T05:10:06;26.40;;;5.80;;
63874;SDS011;51595;24.180;-110.296;2022-07-23T05:12:33;22.40;;;5.47;;
63874;SDS011;51595;24.180;-110.296;2022-07-23T05:14:59;30.20;;;6.40;;
63874;SDS011;51595;24.180;-110.296;2022-07-23T05:17:26;20.98;;;5.25;;
63874;SDS011;51595;24.180;-110.296;2022-07-23T05:19:52;25.13;;;5.13;;
63874;SDS011;51595;24.180;-110.296;2022-07-23T05:22:19;22.08;;;5.60;;
63874;SDS011;51595;24.180;-110.296;2022-07-23T05:24:45;24.95;;;5.80;;
63874;SDS011;51595;24.180;-110.296;2022-07-23T05:27:12;20.20;;;5.28;;
63874;SDS011;51595;24.180;-110.296;2022-07-23T05:29:38;23.05;;;6.07;;
63874;SDS011;51595;24.180;-110.296;2022-07-23T05:32:05;22.83;;;5.07;;
63874;SDS011;51595;24.180;-110.296;2022-07-23T05:34:31;25.88;;;5.82;;
63874;SDS011;51595;24.180;-110.296;2022-07-23T05:36:58;24.40;;;5.57;;
63874;SDS011;51595;24.180;-110.296;2022-07-23T05:39:24;24.95;;;5.05;;
63874;SDS011;51595;24.180;-110.296;2022-07-23T05:41:51;24.45;;;5.53;;
63874;SDS011;51595;24.180;-110.296;2022-07-23T05:44:17;22.80;;;5.22;;
63874;SDS011;51595;24.180;-110.296;2022-07-23T05:46:43;24.00;;;5.20;;
63874;SDS011;51595;24.180;-110.296;2022-07-23T05:49:10;25.85;;;5.78;;
63874;SDS011;51595;24.180;-110.296;2022-07-23T05:51:36;24.20;;;5.63;;
63874;SDS011;51595;24.180;-110.296;2022-07-23T05:54:03;24.42;;;5.50;;
63874;SDS011;51595;24.180;-110.296;2022-07-23T05:56:29;24.42;;;6.18;;
63874;SDS011;51595;24.180;-110.296;2022-07-23T05:58:56;23.67;;;6.15;;
63874;SDS011;51595;24.180;-110.296;2022-07-23T06:01:22;25.05;;;5.20;;
63874;SDS011;51595;24.180;-110.296;2022-07-23T06:03:48;24.25;;;5.60;;
63874;SDS011;51595;24.180;-110.296;2022-07-23T06:06:15;27.88;;;7.13;;
63874;SDS011;51595;24.180;-110.296;2022-07-23T06:08:41;19.55;;;5.20;;
63874;SDS011;51595;24.180;-110.296;2022-07-23T06:11:08;25.88;;;5.78;;
63874;SDS011;51595;24.180;-110.296;2022-07-23T06:13:34;25.02;;;5.53;;
63874;SDS011;51595;24.180;-110.296;2022-07-23T06:16:01;23.88;;;6.32;;
63874;SDS011;51595;24.180;-110.296;2022-07-23T06:18:27;25.83;;;6.07;;
63874;SDS011;51595;24.180;-110.296;2022-07-23T06:20:54;24.70;;;5.65;;
63874;SDS011;51595;24.180;-110.296;2022-07-23T06:23:20;31.30;;;6.97;;
63874;SDS011;51595;24.180;-110.296;2022-07-23T06:25:47;19.38;;;5.63;;
63874;SDS011;51595;24.180;-110.296;2022-07-23T06:28:13;20.67;;;5.57;;
63874;SDS011;51595;24.180;-110.296;2022-07-23T06:30:40;25.35;;;5.88;;
63874;SDS011;51595;24.180;-110.296;2022-07-23T06:33:07;19.30;;;5.03;;
63874;SDS011;51595;24.180;-110.296;2022-07-23T06:35:33;23.15;;;6.10;;
63874;SDS011;51595;24.180;-110.296;2022-07-23T06:38:00;27.17;;;5.22;;
63874;SDS011;51595;24.180;-110.296;2022-07-23T06:40:27;25.23;;;5.00;;
63874;SDS011;51595;24.180;-110.296;2022-07-23T06:42:53;23.73;;;5.78;;
63874;SDS011;51595;24.180;-110.296;2022-07-23T06:45:20;27.48;;;6.40;;
63874;SDS011;51595;24.180;-110.296;2022-07-23T06:47:46;20.27;;;6.25;;
63874;SDS011;51595;24.180;-110.296;2022-07-23T06:50:13;23.83;;;5.50;;
63874;SDS011;51595;24.180;-110.296;2022-07-23T06:52:39;23.63;;;6.68;;
63874;SDS011;51595;24.180;-110.296;2022-07-23T06:55:05;21.25;;;5.13;;
63874;SDS011;51595;24.180;-110.296;2022-07-23T06:57:32;22.90;;;6.03;;
63874;SDS011;51595;24.180;-110.296;2022-07-23T06:59:59;29.08;;;6.57;;
63874;SDS011;51595;24.180;-110.296;2022-07-23T07:02:25;24.80;;;5.28;;
63874;SDS011;51595;24.180;-110.296;2022-07-23T07:04:51;25.58;;;5.78;;
63874;SDS011;51595;24.180;-110.296;2022-07-23T07:07:18;21.17;;;5.65;;
63874;SDS011;51595;24.180;-110.296;2022-07-23T07:09:44;22.55;;;6.05;;
63874;SDS011;51595;24.180;-110.296;2022-07-23T07:12:11;23.77;;;6.18;;
63874;SDS011;51595;24.180;-110.296;2022-07-23T07:14:37;25.02;;;5.68;;
63874;SDS011;51595;24.180;-110.296;2022-07-23T07:17:04;29.13;;;6.82;;
63874;SDS011;51595;24.180;-110.296;2022-07-23T07:19:30;32.15;;;6.57;;
63874;SDS011;51595;24.180;-110.296;2022-07-23T07:21:56;28.95;;;5.88;;
63874;SDS011;51595;24.180;-110.296;2022-07-23T07:24:23;26.95;;;6.50;;
63874;SDS011;51595;24.180;-110.296;2022-07-23T07:26:49;23.75;;;5.90;;
63874;SDS011;51595;24.180;-110.296;2022-07-23T07:29:16;22.80;;;5.85;;
63874;SDS011;51595;24.180;-110.296;2022-07-23T07:31:42;25.30;;;6.18;;
63874;SDS011;51595;24.180;-110.296;2022-07-23T07:34:09;21.42;;;5.28;;
63874;SDS011;51595;24.180;-110.296;2022-07-23T07:36:35;24.88;;;6.57;;
63874;SDS011;51595;24.180;-110.296;2022-07-23T07:39:03;25.20;;;5.50;;
63874;SDS011;51595;24.180;-110.296;2022-07-23T07:41:30;26.30;;;5.72;;
63874;SDS011;51595;24.180;-110.296;2022-07-23T07:43:57;20.88;;;6.47;;
63874;SDS011;51595;24.180;-110.296;2022-07-23T07:46:23;28.05;;;6.45;;
63874;SDS011;51595;24.180;-110.296;2022-07-23T07:48:52;31.50;;;5.65;;
63874;SDS011;51595;24.180;-110.296;2022-07-23T07:51:19;30.45;;;6.28;;
63874;SDS011;51595;24.180;-110.296;2022-07-23T07:53:46;29.63;;;7.13;;
63874;SDS011;51595;24.180;-110.296;2022-07-23T07:56:12;24.40;;;6.13;;
63874;SDS011;51595;24.180;-110.296;2022-07-23T07:58:39;28.05;;;7.07;;
63874;SDS011;51595;24.180;-110.296;2022-07-23T08:01:06;22.30;;;5.50;;
63874;SDS011;51595;24.180;-110.296;2022-07-23T08:03:32;27.52;;;6.15;;
63874;SDS011;51595;24.180;-110.296;2022-07-23T08:05:59;27.85;;;6.18;;
63874;SDS011;51595;24.180;-110.296;2022-07-23T08:08:25;27.33;;;6.70;;
63874;SDS011;51595;24.180;-110.296;2022-07-23T08:10:51;28.88;;;5.70;;
63874;SDS011;51595;24.180;-110.296;2022-07-23T08:13:18;26.58;;;6.18;;
63874;SDS011;51595;24.180;-110.296;2022-07-23T08:15:44;27.48;;;6.40;;
63874;SDS011;51595;24.180;-110.296;2022-07-23T08:18:11;27.08;;;5.78;;
63874;SDS011;51595;24.180;-110.296;2022-07-23T08:20:37;22.98;;;5.57;;
63874;SDS011;51595;24.180;-110.296;2022-07-23T08:23:05;19.63;;;5.25;;
63874;SDS011;51595;24.180;-110.296;2022-07-23T08:25:39;20.23;;;5.32;;
63874;SDS011;51595;24.180;-110.296;2022-07-23T08:28:10;29.30;;;6.47;;
63874;SDS011;51595;24.180;-110.296;2022-07-23T08:30:38;25.75;;;5.35;;
63874;SDS011;51595;24.180;-110.296;2022-07-23T08:33:07;23.20;;;5.53;;
63874;SDS011;51595;24.180;-110.296;2022-07-23T08:35:39;23.52;;;6.38;;
63874;SDS011;51595;24.180;-110.296;2022-07-23T08:38:09;22.83;;;5.72;;
63874;SDS011;51595;24.180;-110.296;2022-07-23T08:40:38;18.40;;;5.13;;
63874;SDS011;51595;24.180;-110.296;2022-07-23T08:43:08;23.60;;;5.50;;
63874;SDS011;51595;24.180;-110.296;2022-07-23T08:45:40;25.00;;;6.20;;
63874;SDS011;51595;24.180;-110.296;2022-07-23T08:48:15;26.27;;;5.95;;
63874;SDS011;51595;24.180;-110.296;2022-07-23T08:50:47;27.40;;;6.60;;
63874;SDS011;51595;24.180;-110.296;2022-07-23T08:53:16;23.92;;;5.43;;
63874;SDS011;51595;24.180;-110.296;2022-07-23T08:55:47;32.22;;;7.47;;
63874;SDS011;51595;24.180;-110.296;2022-07-23T08:58:15;22.95;;;5.68;;
63874;SDS011;51595;24.180;-110.296;2022-07-23T09:00:43;31.38;;;6.95;;
63874;SDS011;51595;24.180;-110.296;2022-07-23T09:03:21;24.33;;;5.70;;
63874;SDS011;51595;24.180;-110.296;2022-07-23T09:05:52;24.90;;;5.75;;
63874;SDS011;51595;24.180;-110.296;2022-07-23T09:08:20;22.02;;;5.55;;
63874;SDS011;51595;24.180;-110.296;2022-07-23T09:10:58;24.30;;;5.43;;
63874;SDS011;51595;24.180;-110.296;2022-07-23T09:13:39;29.20;;;5.60;;
63874;SDS011;51595;24.180;-110.296;2022-07-23T09:16:16;28.13;;;5.68;;
63874;SDS011;51595;24.180;-110.296;2022-07-23T09:19:00;31.73;;;5.63;;
63874;SDS011;51595;24.180;-110.296;2022-07-23T09:21:28;26.30;;;5.78;;
63874;SDS011;51595;24.180;-110.296;2022-07-23T09:26:39;25.77;;;6.05;;
63874;SDS011;51595;24.180;-110.296;2022-07-23T09:29:08;24.95;;;6.10;;
63874;SDS011;51595;24.180;-110.296;2022-07-23T09:34:15;26.75;;;6.20;;
63874;SDS011;51595;24.180;-110.296;2022-07-23T09:36:56;28.27;;;6.57;;
63874;SDS011;51595;24.180;-110.296;2022-07-23T09:39:33;26.25;;;5.68;;
63874;SDS011;51595;24.180;-110.296;2022-07-23T09:42:22;28.30;;;5.80;;
63874;SDS011;51595;24.180;-110.296;2022-07-23T09:44:48;27.23;;;5.95;;
63874;SDS011;51595;24.180;-110.296;2022-07-23T09:47:17;17.50;;;4.78;;
63874;SDS011;51595;24.180;-110.296;2022-07-23T09:50:04;25.23;;;5.75;;
63874;SDS011;51595;24.180;-110.296;2022-07-23T09:52:35;23.13;;;6.32;;
63874;SDS011;51595;24.180;-110.296;2022-07-23T09:55:08;24.25;;;5.63;;
63874;SDS011;51595;24.180;-110.296;2022-07-23T09:57:35;24.75;;;6.35;;
63874;SDS011;51595;24.180;-110.296;2022-07-23T10:00:04;23.17;;;6.40;;
63874;SDS011;51595;24.180;-110.296;2022-07-23T10:02:34;25.42;;;6.43;;
63874;SDS011;51595;24.180;-110.296;2022-07-23T10:05:01;24.40;;;5.80;;
63874;SDS011;51595;24.180;-110.296;2022-07-23T10:07:28;33.38;;;7.18;;
63874;SDS011;51595;24.180;-110.296;2022-07-23T10:09:59;28.90;;;6.30;;
63874;SDS011;51595;24.180;-110.296;2022-07-23T10:12:26;23.80;;;5.25;;
63874;SDS011;51595;24.180;-110.296;2022-07-23T10:15:01;23.58;;;6.68;;
63874;SDS011;51595;24.180;-110.296;2022-07-23T10:17:30;26.92;;;6.22;;
63874;SDS011;51595;24.180;-110.296;2022-07-23T10:19:56;28.15;;;6.70;;
63874;SDS011;51595;24.180;-110.296;2022-07-23T10:22:24;23.42;;;5.85;;
63874;SDS011;51595;24.180;-110.296;2022-07-23T10:30:22;24.95;;;6.88;;
63874;SDS011;51595;24.180;-110.296;2022-07-23T10:35:56;29.90;;;6.32;;
63874;SDS011;51595;24.180;-110.296;2022-07-23T10:38:37;27.25;;;5.82;;
63874;SDS011;51595;24.180;-110.296;2022-07-23T10:44:21;31.38;;;7.15;;
63874;SDS011;51595;24.180;-110.296;2022-07-23T10:46:58;22.58;;;5.63;;
63874;SDS011;51595;24.180;-110.296;2022-07-23T10:50:23;18.65;;;5.70;;
63874;SDS011;51595;24.180;-110.296;2022-07-23T10:58:03;19.02;;;5.85;;
63874;SDS011;51595;24.180;-110.296;2022-07-23T11:00:31;22.23;;;6.30;;
63874;SDS011;51595;24.180;-110.296;2022-07-23T11:03:00;27.70;;;7.00;;
63874;SDS011;51595;24.180;-110.296;2022-07-23T11:05:42;23.80;;;6.18;;
63874;SDS011;51595;24.180;-110.296;2022-07-23T11:08:11;27.67;;;6.45;;
63874;SDS011;51595;24.180;-110.296;2022-07-23T11:10:44;26.58;;;6.15;;
63874;SDS011;51595;24.180;-110.296;2022-07-23T11:16:03;24.65;;;6.07;;
63874;SDS011;51595;24.180;-110.296;2022-07-23T11:32:05;29.17;;;6.53;;
63874;SDS011;51595;24.180;-110.296;2022-07-23T11:34:43;21.17;;;5.18;;
63874;SDS011;51595;24.180;-110.296;2022-07-23T11:37:47;33.60;;;7.13;;
63874;SDS011;51595;24.180;-110.296;2022-07-23T11:40:10;29.30;;;6.32;;
63874;SDS011;51595;24.180;-110.296;2022-07-23T11:42:38;27.15;;;6.15;;
63874;SDS011;51595;24.180;-110.296;2022-07-23T11:45:15;32.03;;;5.93;;
63874;SDS011;51595;24.180;-110.296;2022-07-23T11:47:41;33.40;;;7.43;;
63874;SDS011;51595;24.180;-110.296;2022-07-23T11:50:08;26.88;;;6.13;;
63874;SDS011;51595;24.180;-110.296;2022-07-23T11:52:34;24.73;;;6.07;;
63874;SDS011;51595;24.180;-110.296;2022-07-23T11:55:03;25.75;;;7.00;;
63874;SDS011;51595;24.180;-110.296;2022-07-23T11:57:35;35.13;;;7.30;;
63874;SDS011;51595;24.180;-110.296;2022-07-23T12:02:37;32.35;;;6.45;;
63874;SDS011;51595;24.180;-110.296;2022-07-23T12:05:08;24.98;;;5.70;;
63874;SDS011;51595;24.180;-110.296;2022-07-23T12:07:39;32.63;;;6.93;;
63874;SDS011;51595;24.180;-110.296;2022-07-23T12:12:36;32.65;;;6.40;;
63874;SDS011;51595;24.180;-110.296;2022-07-23T12:15:26;29.02;;;6.10;;
63874;SDS011;51595;24.180;-110.296;2022-07-23T12:17:58;27.35;;;6.45;;
63874;SDS011;51595;24.180;-110.296;2022-07-23T12:20:28;31.67;;;6.55;;
63874;SDS011;51595;24.180;-110.296;2022-07-23T12:22:58;30.20;;;6.05;;
63874;SDS011;51595;24.180;-110.296;2022-07-23T12:25:27;30.92;;;6.32;;
63874;SDS011;51595;24.180;-110.296;2022-07-23T12:28:13;35.03;;;6.85;;
63874;SDS011;51595;24.180;-110.296;2022-07-23T12:33:21;33.70;;;6.97;;
63874;SDS011;51595;24.180;-110.296;2022-07-23T12:35:49;30.67;;;6.65;;
63874;SDS011;51595;24.180;-110.296;2022-07-23T12:38:17;33.70;;;6.45;;
63874;SDS011;51595;24.180;-110.296;2022-07-23T12:40:49;28.20;;;5.90;;
63874;SDS011;51595;24.180;-110.296;2022-07-23T12:43:32;34.10;;;7.97;;
63874;SDS011;51595;24.180;-110.296;2022-07-23T12:51:17;33.67;;;8.40;;
63874;SDS011;51595;24.180;-110.296;2022-07-23T12:56:26;30.85;;;7.25;;
63874;SDS011;51595;24.180;-110.296;2022-07-23T12:58:55;33.08;;;7.25;;
63874;SDS011;51595;24.180;-110.296;2022-07-23T13:01:30;29.52;;;7.00;;
63874;SDS011;51595;24.180;-110.296;2022-07-23T13:04:08;29.40;;;6.25;;
63874;SDS011;51595;24.180;-110.296;2022-07-23T13:06:48;34.30;;;7.13;;
63874;SDS011;51595;24.180;-110.296;2022-07-23T13:09:27;30.92;;;7.10;;
63874;SDS011;51595;24.180;-110.296;2022-07-23T13:11:55;27.50;;;6.60;;
63874;SDS011;51595;24.180;-110.296;2022-07-23T13:14:23;29.27;;;7.05;;
63874;SDS011;51595;24.180;-110.296;2022-07-23T13:16:51;37.50;;;7.22;;
63874;SDS011;51595;24.180;-110.296;2022-07-23T13:19:19;33.78;;;6.70;;
63874;SDS011;51595;24.180;-110.296;2022-07-23T13:21:47;31.52;;;7.18;;
63874;SDS011;51595;24.180;-110.296;2022-07-23T13:24:14;31.83;;;7.03;;
63874;SDS011;51595;24.180;-110.296;2022-07-23T13:26:41;37.00;;;7.15;;
63874;SDS011;51595;24.180;-110.296;2022-07-23T13:29:07;33.58;;;7.38;;
63874;SDS011;51595;24.180;-110.296;2022-07-23T13:31:35;31.92;;;7.05;;
63874;SDS011;51595;24.180;-110.296;2022-07-23T13:34:02;26.08;;;6.13;;
63874;SDS011;51595;24.180;-110.296;2022-07-23T13:36:29;25.20;;;6.28;;
63874;SDS011;51595;24.180;-110.296;2022-07-23T13:38:55;32.40;;;7.10;;
63874;SDS011;51595;24.180;-110.296;2022-07-23T13:41:22;29.63;;;6.60;;
63874;SDS011;51595;24.180;-110.296;2022-07-23T13:43:49;26.23;;;6.60;;
63874;SDS011;51595;24.180;-110.296;2022-07-23T13:46:15;25.58;;;5.68;;
63874;SDS011;51595;24.180;-110.296;2022-07-23T13:48:43;34.83;;;6.38;;
63874;SDS011;51595;24.180;-110.296;2022-07-23T13:51:09;34.97;;;7.25;;
63874;SDS011;51595;24.180;-110.296;2022-07-23T13:53:36;32.45;;;6.47;;
63874;SDS011;51595;24.180;-110.296;2022-07-23T13:56:03;34.42;;;7.00;;
63874;SDS011;51595;24.180;-110.296;2022-07-23T13:58:29;26.55;;;5.15;;
63874;SDS011;51595;24.180;-110.296;2022-07-23T14:00:56;28.50;;;6.00;;
63874;SDS011;51595;24.180;-110.296;2022-07-23T14:03:23;32.83;;;6.00;;
63874;SDS011;51595;24.180;-110.296;2022-07-23T14:05:50;27.83;;;6.05;;
63874;SDS011;51595;24.180;-110.296;2022-07-23T14:08:17;24.95;;;5.30;;
63874;SDS011;51595;24.180;-110.296;2022-07-23T14:10:44;28.63;;;5.60;;
63874;SDS011;51595;24.180;-110.296;2022-07-23T14:13:10;27.83;;;5.63;;
63874;SDS011;51595;24.180;-110.296;2022-07-23T14:15:36;26.02;;;5.68;;
63874;SDS011;51595;24.180;-110.296;2022-07-23T14:18:05;30.88;;;5.78;;
63874;SDS011;51595;24.180;-110.296;2022-07-23T14:20:32;24.40;;;5.57;;
63874;SDS011;51595;24.180;-110.296;2022-07-23T14:22:59;33.53;;;6.00;;
63874;SDS011;51595;24.180;-110.296;2022-07-23T14:25:26;26.25;;;5.68;;
63874;SDS011;51595;24.180;-110.296;2022-07-23T14:27:52;23.83;;;5.07;;
63874;SDS011;51595;24.180;-110.296;2022-07-23T14:30:19;32.13;;;6.32;;
63874;SDS011;51595;24.180;-110.296;2022-07-23T14:32:48;28.35;;;6.80;;
63874;SDS011;51595;24.180;-110.296;2022-07-23T14:35:14;25.48;;;5.82;;
63874;SDS011;51595;24.180;-110.296;2022-07-23T14:37:42;29.75;;;5.82;;
63874;SDS011;51595;24.180;-110.296;2022-07-23T14:40:08;26.02;;;5.80;;
63874;SDS011;51595;24.180;-110.296;2022-07-23T14:42:35;25.13;;;5.85;;
63874;SDS011;51595;24.180;-110.296;2022-07-23T14:45:02;26.70;;;5.38;;
63874;SDS011;51595;24.180;-110.296;2022-07-23T14:47:30;30.38;;;6.43;;
63874;SDS011;51595;24.180;-110.296;2022-07-23T14:49:57;26.33;;;6.80;;
63874;SDS011;51595;24.180;-110.296;2022-07-23T14:52:23;22.83;;;5.63;;
63874;SDS011;51595;24.180;-110.296;2022-07-23T14:54:50;28.00;;;6.22;;
63874;SDS011;51595;24.180;-110.296;2022-07-23T14:57:16;30.52;;;6.82;;